sensor_id;sensor_type;location;lat;lon;timestamp;pressure;altitude;pressure_sealevel;temperature;humidity
36598;BME280;22607;49.550;11.940;2023-07-29T00:00:45;96440.09;;;19.29;100.00
36598;BME280;22607;49.550;11.940;2023-07-29T00:03:11;96433.41;;;19.44;100.00
36598;BME280;22607;49.550;11.940;2023-07-29T00:05:38;96444.03;;;19.26;100.00
36598;BME280;22607;49.550;11.940;2023-07-29T00:08:06;96445.59;;;19.39;100.00
36598;BME280;22607;49.550;11.940;2023-07-29T00:10:35;96448.19;;;19.51;100.00
36598;BME280;22607;49.550;11.940;2023-07-29T00:13:03;96442.09;;;19.51;100.00
36598;BME280;22607;49.550;11.940;2023-07-29T00:15:30;96440.13;;;19.46;100.00
36598;BME280;22607;49.550;11.940;2023-07-29T00:17:57;96445.38;;;19.58;100.00
36598;BME280;22607;49.550;11.940;2023-07-29T00:20:23;96438.53;;;19.62;100.00
36598;BME280;22607;49.550;11.940;2023-07-29T00:22:50;96441.69;;;19.59;100.00
36598;BME280;22607;49.550;11.940;2023-07-29T00:25:19;96443.13;;;19.50;100.00
36598;BME280;22607;49.550;11.940;2023-07-29T00:27:46;96438.13;;;19.53;100.00
36598;BME280;22607;49.550;11.940;2023-07-29T00:30:12;96447.31;;;19.46;100.00
36598;BME280;22607;49.550;11.940;2023-07-29T00:32:39;96435.03;;;19.45;100.00
36598;BME280;22607;49.550;11.940;2023-07-29T00:35:06;96442.00;;;19.46;100.00
36598;BME280;22607;49.550;11.940;2023-07-29T00:37:33;96437.97;;;19.43;100.00
36598;BME280;22607;49.550;11.940;2023-07-29T00:39:59;96435.22;;;19.38;100.00
36598;BME280;22607;49.550;11.940;2023-07-29T00:42:26;96433.78;;;19.47;100.00
36598;BME280;22607;49.550;11.940;2023-07-29T00:44:52;96434.84;;;19.34;100.00
36598;BME280;22607;49.550;11.940;2023-07-29T00:47:20;96436.31;;;19.42;100.00
36598;BME280;22607;49.550;11.940;2023-07-29T00:49:47;96438.03;;;19.48;100.00
36598;BME280;22607;49.550;11.940;2023-07-29T00:52:14;96434.94;;;19.39;100.00
36598;BME280;22607;49.550;11.940;2023-07-29T00:54:40;96444.56;;;19.40;100.00
36598;BME280;22607;49.550;11.940;2023-07-29T00:57:08;96438.34;;;19.35;100.00
36598;BME280;22607;49.550;11.940;2023-07-29T00:59:36;96442.94;;;19.39;100.00
36598;BME280;22607;49.550;11.940;2023-07-29T01:02:03;96442.84;;;19.34;100.00
36598;BME280;22607;49.550;11.940;2023-07-29T01:04:31;96433.81;;;19.35;100.00
36598;BME280;22607;49.550;11.940;2023-07-29T01:07:16;96426.31;;;19.32;100.00
36598;BME280;22607;49.550;11.940;2023-07-29T01:09:52;96432.63;;;19.43;100.00
36598;BME280;22607;49.550;11.940;2023-07-29T01:12:27;96436.16;;;19.49;100.00
36598;BME280;22607;49.550;11.940;2023-07-29T01:17:33;96428.78;;;19.51;100.00
36598;BME280;22607;49.550;11.940;2023-07-29T01:22:33;96410.16;;;19.22;100.00
36598;BME280;22607;49.550;11.940;2023-07-29T01:25:00;96418.59;;;19.48;100.00
36598;BME280;22607;49.550;11.940;2023-07-29T01:27:27;96416.72;;;19.31;100.00
36598;BME280;22607;49.550;11.940;2023-07-29T01:29:54;96425.13;;;19.40;100.00
36598;BME280;22607;49.550;11.940;2023-07-29T01:35:20;96417.94;;;19.40;100.00
36598;BME280;22607;49.550;11.940;2023-07-29T01:38:04;96413.09;;;19.37;100.00
36598;BME280;22607;49.550;11.940;2023-07-29T01:40:33;96423.34;;;19.46;100.00
36598;BME280;22607;49.550;11.940;2023-07-29T01:43:00;96421.31;;;19.36;100.00
36598;BME280;22607;49.550;11.940;2023-07-29T01:45:26;96425.34;;;19.38;100.00
36598;BME280;22607;49.550;11.940;2023-07-29T01:47:53;96421.63;;;19.39;100.00
36598;BME280;22607;49.550;11.940;2023-07-29T01:50:20;96424.50;;;19.21;100.00
36598;BME280;22607;49.550;11.940;2023-07-29T01:52:46;96419.44;;;19.19;100.00
36598;BME280;22607;49.550;11.940;2023-07-29T01:55:13;96428.28;;;18.84;100.00
36598;BME280;22607;49.550;11.940;2023-07-29T01:57:39;96432.31;;;18.98;100.00
36598;BME280;22607;49.550;11.940;2023-07-29T02:00:07;96429.19;;;19.01;100.00
36598;BME280;22607;49.550;11.940;2023-07-29T02:02:34;96424.91;;;18.88;100.00
36598;BME280;22607;49.550;11.940;2023-07-29T02:05:01;96424.78;;;19.07;100.00
36598;BME280;22607;49.550;11.940;2023-07-29T02:07:27;96419.31;;;19.02;100.00
36598;BME280;22607;49.550;11.940;2023-07-29T02:09:55;96416.94;;;19.00;100.00
36598;BME280;22607;49.550;11.940;2023-07-29T02:12:22;96419.44;;;19.07;100.00
36598;BME280;22607;49.550;11.940;2023-07-29T02:14:48;96421.97;;;19.14;100.00
36598;BME280;22607;49.550;11.940;2023-07-29T02:17:15;96419.66;;;19.18;100.00
36598;BME280;22607;49.550;11.940;2023-07-29T02:19:41;96420.03;;;19.09;100.00
36598;BME280;22607;49.550;11.940;2023-07-29T02:22:09;96415.47;;;19.22;100.00
36598;BME280;22607;49.550;11.940;2023-07-29T02:24:36;96420.69;;;19.17;100.00
36598;BME280;22607;49.550;11.940;2023-07-29T02:27:03;96419.91;;;19.04;100.00
36598;BME280;22607;49.550;11.940;2023-07-29T02:29:29;96418.53;;;19.13;100.00
36598;BME280;22607;49.550;11.940;2023-07-29T02:31:56;96425.31;;;19.21;100.00
36598;BME280;22607;49.550;11.940;2023-07-29T02:34:23;96425.03;;;19.06;100.00
36598;BME280;22607;49.550;11.940;2023-07-29T02:36:49;96426.31;;;18.91;100.00
36598;BME280;22607;49.550;11.940;2023-07-29T02:39:16;96429.53;;;18.93;100.00
36598;BME280;22607;49.550;11.940;2023-07-29T02:41:44;96437.56;;;18.81;100.00
36598;BME280;22607;49.550;11.940;2023-07-29T02:44:10;96423.19;;;18.82;100.00
36598;BME280;22607;49.550;11.940;2023-07-29T02:46:37;96425.03;;;18.94;100.00
36598;BME280;22607;49.550;11.940;2023-07-29T02:49:04;96426.75;;;19.00;100.00
36598;BME280;22607;49.550;11.940;2023-07-29T02:51:30;96424.09;;;19.00;100.00
36598;BME280;22607;49.550;11.940;2023-07-29T02:53:57;96428.16;;;18.91;100.00
36598;BME280;22607;49.550;11.940;2023-07-29T02:56:24;96416.34;;;18.98;100.00
36598;BME280;22607;49.550;11.940;2023-07-29T02:58:50;96412.63;;;18.99;100.00
36598;BME280;22607;49.550;11.940;2023-07-29T03:01:22;96416.78;;;18.95;100.00
36598;BME280;22607;49.550;11.940;2023-07-29T03:03:53;96417.94;;;19.11;100.00
36598;BME280;22607;49.550;11.940;2023-07-29T03:06:20;96412.06;;;19.09;100.00
36598;BME280;22607;49.550;11.940;2023-07-29T03:08:46;96415.06;;;19.01;100.00
36598;BME280;22607;49.550;11.940;2023-07-29T03:11:14;96422.88;;;19.20;100.00
36598;BME280;22607;49.550;11.940;2023-07-29T03:13:42;96414.34;;;19.18;100.00
36598;BME280;22607;49.550;11.940;2023-07-29T03:16:11;96405.44;;;19.12;100.00
36598;BME280;22607;49.550;11.940;2023-07-29T03:18:38;96412.50;;;19.06;100.00
36598;BME280;22607;49.550;11.940;2023-07-29T03:21:05;96410.63;;;19.19;100.00
36598;BME280;22607;49.550;11.940;2023-07-29T03:23:36;96401.13;;;19.23;100.00
36598;BME280;22607;49.550;11.940;2023-07-29T03:26:03;96400.53;;;19.21;100.00
36598;BME280;22607;49.550;11.940;2023-07-29T03:28:42;96391.31;;;19.11;100.00
36598;BME280;22607;49.550;11.940;2023-07-29T03:31:10;96404.06;;;19.09;100.00
36598;BME280;22607;49.550;11.940;2023-07-29T03:33:37;96399.66;;;19.15;100.00
36598;BME280;22607;49.550;11.940;2023-07-29T03:36:04;96398.84;;;19.14;100.00
36598;BME280;22607;49.550;11.940;2023-07-29T03:38:30;96400.94;;;19.12;100.00
36598;BME280;22607;49.550;11.940;2023-07-29T03:40:59;96388.44;;;19.13;100.00
36598;BME280;22607;49.550;11.940;2023-07-29T03:43:26;96389.44;;;18.83;100.00
36598;BME280;22607;49.550;11.940;2023-07-29T03:45:52;96380.94;;;18.98;100.00
36598;BME280;22607;49.550;11.940;2023-07-29T03:48:19;96393.56;;;18.91;100.00
36598;BME280;22607;49.550;11.940;2023-07-29T03:50:46;96390.59;;;18.87;100.00
36598;BME280;22607;49.550;11.940;2023-07-29T03:53:12;96399.13;;;18.89;100.00
36598;BME280;22607;49.550;11.940;2023-07-29T03:55:39;96405.81;;;18.92;100.00
36598;BME280;22607;49.550;11.940;2023-07-29T03:58:05;96397.16;;;18.96;100.00
36598;BME280;22607;49.550;11.940;2023-07-29T04:00:32;96404.81;;;18.81;100.00
36598;BME280;22607;49.550;11.940;2023-07-29T04:03:00;96387.78;;;19.06;100.00
36598;BME280;22607;49.550;11.940;2023-07-29T04:05:27;96391.94;;;19.01;100.00
36598;BME280;22607;49.550;11.940;2023-07-29T04:07:54;96400.38;;;18.98;100.00
36598;BME280;22607;49.550;11.940;2023-07-29T04:10:20;96408.16;;;18.88;100.00
36598;BME280;22607;49.550;11.940;2023-07-29T04:12:47;96404.22;;;18.91;100.00
36598;BME280;22607;49.550;11.940;2023-07-29T04:15:13;96405.03;;;18.91;100.00
36598;BME280;22607;49.550;11.940;2023-07-29T04:17:40;96409.72;;;19.01;100.00
36598;BME280;22607;49.550;11.940;2023-07-29T04:20:07;96411.25;;;18.97;100.00
36598;BME280;22607;49.550;11.940;2023-07-29T04:22:34;96405.47;;;19.00;100.00
36598;BME280;22607;49.550;11.940;2023-07-29T04:25:00;96399.69;;;19.03;100.00
36598;BME280;22607;49.550;11.940;2023-07-29T04:27:27;96394.25;;;19.10;100.00
36598;BME280;22607;49.550;11.940;2023-07-29T04:29:53;96388.50;;;19.18;100.00
36598;BME280;22607;49.550;11.940;2023-07-29T04:32:20;96385.75;;;19.13;100.00
36598;BME280;22607;49.550;11.940;2023-07-29T04:34:47;96386.91;;;19.17;100.00
36598;BME280;22607;49.550;11.940;2023-07-29T04:37:13;96378.28;;;19.10;100.00
36598;BME280;22607;49.550;11.940;2023-07-29T04:39:40;96373.44;;;18.95;100.00
36598;BME280;22607;49.550;11.940;2023-07-29T04:42:06;96391.00;;;18.96;100.00
36598;BME280;22607;49.550;11.940;2023-07-29T04:44:33;96404.53;;;18.94;100.00
36598;BME280;22607;49.550;11.940;2023-07-29T04:47:00;96413.72;;;18.86;100.00
36598;BME280;22607;49.550;11.940;2023-07-29T04:49:26;96424.91;;;18.88;100.00
36598;BME280;22607;49.550;11.940;2023-07-29T04:51:53;96420.75;;;18.93;100.00
36598;BME280;22607;49.550;11.940;2023-07-29T04:54:19;96415.06;;;19.01;100.00
36598;BME280;22607;49.550;11.940;2023-07-29T04:56:47;96412.28;;;18.96;100.00
36598;BME280;22607;49.550;11.940;2023-07-29T04:59:13;96420.66;;;18.87;100.00
36598;BME280;22607;49.550;11.940;2023-07-29T05:01:40;96421.13;;;18.84;100.00
36598;BME280;22607;49.550;11.940;2023-07-29T05:04:08;96414.16;;;18.83;100.00
36598;BME280;22607;49.550;11.940;2023-07-29T05:06:35;96398.16;;;19.07;100.00
36598;BME280;22607;49.550;11.940;2023-07-29T05:09:18;96400.25;;;20.77;100.00
36598;BME280;22607;49.550;11.940;2023-07-29T05:11:46;96401.81;;;21.77;100.00
36598;BME280;22607;49.550;11.940;2023-07-29T05:14:13;96402.44;;;21.90;100.00
36598;BME280;22607;49.550;11.940;2023-07-29T05:16:41;96411.81;;;21.60;100.00
36598;BME280;22607;49.550;11.940;2023-07-29T05:19:07;96407.66;;;22.12;100.00
36598;BME280;22607;49.550;11.940;2023-07-29T05:21:34;96404.09;;;22.98;100.00
36598;BME280;22607;49.550;11.940;2023-07-29T05:24:00;96405.28;;;23.28;100.00
36598;BME280;22607;49.550;11.940;2023-07-29T05:26:27;96419.81;;;24.00;93.32
36598;BME280;22607;49.550;11.940;2023-07-29T05:28:54;96415.97;;;24.53;86.03
36598;BME280;22607;49.550;11.940;2023-07-29T05:31:21;96413.91;;;23.56;95.17
36598;BME280;22607;49.550;11.940;2023-07-29T05:33:48;96414.19;;;22.75;98.44
36598;BME280;22607;49.550;11.940;2023-07-29T05:36:14;96420.97;;;21.69;100.00
36598;BME280;22607;49.550;11.940;2023-07-29T05:38:41;96403.38;;;22.11;100.00
36598;BME280;22607;49.550;11.940;2023-07-29T05:41:08;96397.72;;;23.15;94.79
36598;BME280;22607;49.550;11.940;2023-07-29T05:43:35;96396.94;;;22.50;100.00
36598;BME280;22607;49.550;11.940;2023-07-29T05:46:01;96400.00;;;22.21;100.00
36598;BME280;22607;49.550;11.940;2023-07-29T05:48:28;96393.00;;;21.77;100.00
36598;BME280;22607;49.550;11.940;2023-07-29T05:50:55;96397.94;;;21.96;100.00
36598;BME280;22607;49.550;11.940;2023-07-29T05:53:22;96391.53;;;22.99;100.00
36598;BME280;22607;49.550;11.940;2023-07-29T05:55:48;96384.44;;;23.72;86.88
36598;BME280;22607;49.550;11.940;2023-07-29T05:58:15;96385.47;;;23.45;93.39
36598;BME280;22607;49.550;11.940;2023-07-29T06:00:42;96380.50;;;22.85;98.12
36598;BME280;22607;49.550;11.940;2023-07-29T06:03:08;96381.28;;;22.26;100.00
36598;BME280;22607;49.550;11.940;2023-07-29T06:05:35;96388.75;;;22.24;100.00
36598;BME280;22607;49.550;11.940;2023-07-29T06:08:02;96373.28;;;22.32;100.00
36598;BME280;22607;49.550;11.940;2023-07-29T06:10:28;96363.75;;;22.51;100.00
36598;BME280;22607;49.550;11.940;2023-07-29T06:12:55;96370.13;;;22.40;100.00
36598;BME280;22607;49.550;11.940;2023-07-29T06:15:21;96366.03;;;22.27;100.00
36598;BME280;22607;49.550;11.940;2023-07-29T06:17:49;96364.13;;;22.17;100.00
36598;BME280;22607;49.550;11.940;2023-07-29T06:20:16;96375.50;;;21.97;100.00
36598;BME280;22607;49.550;11.940;2023-07-29T06:22:42;96380.38;;;21.72;100.00
36598;BME280;22607;49.550;11.940;2023-07-29T06:25:12;96377.13;;;21.65;100.00
36598;BME280;22607;49.550;11.940;2023-07-29T06:27:38;96386.91;;;21.54;100.00
36598;BME280;22607;49.550;11.940;2023-07-29T06:30:06;96389.69;;;21.37;100.00
36598;BME280;22607;49.550;11.940;2023-07-29T06:32:34;96399.66;;;21.47;100.00
36598;BME280;22607;49.550;11.940;2023-07-29T06:35:00;96394.97;;;21.59;100.00
36598;BME280;22607;49.550;11.940;2023-07-29T06:37:27;96385.03;;;21.82;100.00
36598;BME280;22607;49.550;11.940;2023-07-29T06:39:54;96386.88;;;21.82;100.00
36598;BME280;22607;49.550;11.940;2023-07-29T06:42:21;96388.34;;;21.67;100.00
36598;BME280;22607;49.550;11.940;2023-07-29T06:44:47;96390.22;;;21.67;100.00
36598;BME280;22607;49.550;11.940;2023-07-29T06:47:14;96387.47;;;21.61;100.00
36598;BME280;22607;49.550;11.940;2023-07-29T06:49:40;96380.03;;;21.63;100.00
36598;BME280;22607;49.550;11.940;2023-07-29T06:52:07;96389.66;;;21.64;100.00
36598;BME280;22607;49.550;11.940;2023-07-29T06:54:34;96391.75;;;21.57;100.00
36598;BME280;22607;49.550;11.940;2023-07-29T06:57:00;96380.41;;;21.77;100.00
36598;BME280;22607;49.550;11.940;2023-07-29T06:59:27;96377.25;;;22.19;100.00
36598;BME280;22607;49.550;11.940;2023-07-29T07:01:53;96360.91;;;22.20;100.00
36598;BME280;22607;49.550;11.940;2023-07-29T07:04:21;96363.31;;;22.16;100.00
36598;BME280;22607;49.550;11.940;2023-07-29T07:06:48;96358.81;;;22.22;100.00
36598;BME280;22607;49.550;11.940;2023-07-29T07:09:15;96359.53;;;22.61;100.00
36598;BME280;22607;49.550;11.940;2023-07-29T07:11:41;96360.38;;;22.72;100.00
36598;BME280;22607;49.550;11.940;2023-07-29T07:14:08;96361.75;;;22.26;100.00
36598;BME280;22607;49.550;11.940;2023-07-29T07:16:34;96346.47;;;22.16;100.00
36598;BME280;22607;49.550;11.940;2023-07-29T07:19:03;96348.06;;;22.12;100.00
36598;BME280;22607;49.550;11.940;2023-07-29T07:21:30;96332.56;;;22.19;100.00
36598;BME280;22607;49.550;11.940;2023-07-29T07:23:56;96337.81;;;21.98;100.00
36598;BME280;22607;49.550;11.940;2023-07-29T07:26:23;96348.19;;;21.57;100.00
36598;BME280;22607;49.550;11.940;2023-07-29T07:28:49;96365.03;;;21.57;100.00
36598;BME280;22607;49.550;11.940;2023-07-29T07:31:17;96377.44;;;21.41;100.00
36598;BME280;22607;49.550;11.940;2023-07-29T07:33:46;96363.75;;;21.05;100.00
36598;BME280;22607;49.550;11.940;2023-07-29T07:36:12;96366.47;;;21.10;100.00
36598;BME280;22607;49.550;11.940;2023-07-29T07:38:39;96360.34;;;20.87;100.00
36598;BME280;22607;49.550;11.940;2023-07-29T07:41:06;96360.75;;;20.79;100.00
36598;BME280;22607;49.550;11.940;2023-07-29T07:43:33;96362.38;;;21.02;100.00
36598;BME280;22607;49.550;11.940;2023-07-29T07:46:01;96357.34;;;21.06;100.00
36598;BME280;22607;49.550;11.940;2023-07-29T07:48:28;96358.84;;;20.96;100.00
36598;BME280;22607;49.550;11.940;2023-07-29T07:50:54;96365.59;;;20.82;100.00
36598;BME280;22607;49.550;11.940;2023-07-29T07:53:21;96382.38;;;21.00;100.00
36598;BME280;22607;49.550;11.940;2023-07-29T07:55:47;96372.97;;;20.75;100.00
36598;BME280;22607;49.550;11.940;2023-07-29T07:58:14;96369.53;;;20.74;100.00
36598;BME280;22607;49.550;11.940;2023-07-29T08:00:41;96367.78;;;20.85;100.00
36598;BME280;22607;49.550;11.940;2023-07-29T08:03:07;96379.56;;;20.67;100.00
36598;BME280;22607;49.550;11.940;2023-07-29T08:05:34;96381.38;;;20.83;100.00
36598;BME280;22607;49.550;11.940;2023-07-29T08:08:00;96385.72;;;20.67;100.00
36598;BME280;22607;49.550;11.940;2023-07-29T08:10:27;96385.25;;;20.53;100.00
36598;BME280;22607;49.550;11.940;2023-07-29T08:12:53;96369.19;;;20.48;100.00
36598;BME280;22607;49.550;11.940;2023-07-29T08:15:20;96377.59;;;20.17;100.00
36598;BME280;22607;49.550;11.940;2023-07-29T08:17:46;96371.75;;;20.60;100.00
36598;BME280;22607;49.550;11.940;2023-07-29T08:20:13;96372.38;;;20.67;100.00
36598;BME280;22607;49.550;11.940;2023-07-29T08:22:40;96370.00;;;20.93;100.00
36598;BME280;22607;49.550;11.940;2023-07-29T08:25:06;96378.41;;;21.02;100.00
36598;BME280;22607;49.550;11.940;2023-07-29T08:27:33;96376.94;;;21.17;100.00
36598;BME280;22607;49.550;11.940;2023-07-29T08:30:01;96383.50;;;21.31;100.00
36598;BME280;22607;49.550;11.940;2023-07-29T08:32:27;96387.53;;;21.34;100.00
36598;BME280;22607;49.550;11.940;2023-07-29T08:34:55;96379.47;;;21.29;100.00
36598;BME280;22607;49.550;11.940;2023-07-29T08:37:22;96378.22;;;21.42;100.00
36598;BME280;22607;49.550;11.940;2023-07-29T08:39:48;96383.78;;;21.62;100.00
36598;BME280;22607;49.550;11.940;2023-07-29T08:42:19;96388.41;;;21.45;100.00
36598;BME280;22607;49.550;11.940;2023-07-29T08:44:48;96385.63;;;21.62;100.00
36598;BME280;22607;49.550;11.940;2023-07-29T08:47:15;96371.88;;;21.75;100.00
36598;BME280;22607;49.550;11.940;2023-07-29T08:49:50;96366.81;;;21.79;100.00
36598;BME280;22607;49.550;11.940;2023-07-29T08:52:52;96349.13;;;21.73;100.00
36598;BME280;22607;49.550;11.940;2023-07-29T08:55:20;96351.97;;;21.61;100.00
36598;BME280;22607;49.550;11.940;2023-07-29T08:57:50;96360.22;;;21.59;100.00
36598;BME280;22607;49.550;11.940;2023-07-29T09:00:17;96367.19;;;21.28;100.00
36598;BME280;22607;49.550;11.940;2023-07-29T09:02:47;96359.78;;;21.40;100.00
36598;BME280;22607;49.550;11.940;2023-07-29T09:05:13;96365.44;;;21.16;100.00
36598;BME280;22607;49.550;11.940;2023-07-29T09:07:40;96362.78;;;21.16;100.00
36598;BME280;22607;49.550;11.940;2023-07-29T09:10:13;96358.22;;;21.11;100.00
36598;BME280;22607;49.550;11.940;2023-07-29T09:12:40;96348.91;;;20.92;100.00
36598;BME280;22607;49.550;11.940;2023-07-29T09:15:07;96381.38;;;21.06;100.00
36598;BME280;22607;49.550;11.940;2023-07-29T09:17:33;96380.88;;;21.09;100.00
36598;BME280;22607;49.550;11.940;2023-07-29T09:20:00;96390.75;;;21.08;100.00
36598;BME280;22607;49.550;11.940;2023-07-29T09:22:27;96392.28;;;21.04;100.00
36598;BME280;22607;49.550;11.940;2023-07-29T09:24:57;96391.41;;;20.98;100.00
36598;BME280;22607;49.550;11.940;2023-07-29T09:27:27;96379.25;;;21.08;100.00
36598;BME280;22607;49.550;11.940;2023-07-29T09:29:56;96378.22;;;20.87;100.00
36598;BME280;22607;49.550;11.940;2023-07-29T09:32:23;96365.97;;;20.68;100.00
36598;BME280;22607;49.550;11.940;2023-07-29T09:34:51;96361.28;;;20.76;100.00
36598;BME280;22607;49.550;11.940;2023-07-29T09:37:21;96365.09;;;20.40;100.00
36598;BME280;22607;49.550;11.940;2023-07-29T09:39:48;96363.38;;;20.29;100.00
36598;BME280;22607;49.550;11.940;2023-07-29T09:42:20;96374.66;;;20.36;100.00
36598;BME280;22607;49.550;11.940;2023-07-29T09:44:49;96380.44;;;19.93;100.00
36598;BME280;22607;49.550;11.940;2023-07-29T09:47:23;96374.69;;;20.19;100.00
36598;BME280;22607;49.550;11.940;2023-07-29T09:49:51;96378.72;;;20.22;100.00
36598;BME280;22607;49.550;11.940;2023-07-29T09:52:19;96387.13;;;19.96;100.00
36598;BME280;22607;49.550;11.940;2023-07-29T09:54:46;96395.59;;;19.93;100.00
36598;BME280;22607;49.550;11.940;2023-07-29T09:57:14;96379.88;;;20.09;100.00
36598;BME280;22607;49.550;11.940;2023-07-29T09:59:41;96376.94;;;19.93;100.00
36598;BME280;22607;49.550;11.940;2023-07-29T10:02:13;96385.69;;;19.88;100.00
36598;BME280;22607;49.550;11.940;2023-07-29T10:04:42;96394.25;;;19.73;100.00
36598;BME280;22607;49.550;11.940;2023-07-29T10:07:12;96401.09;;;19.52;100.00
36598;BME280;22607;49.550;11.940;2023-07-29T10:09:39;96401.53;;;19.78;100.00
36598;BME280;22607;49.550;11.940;2023-07-29T10:12:06;96408.78;;;19.65;100.00
36598;BME280;22607;49.550;11.940;2023-07-29T10:14:34;96423.63;;;19.61;100.00
36598;BME280;22607;49.550;11.940;2023-07-29T10:17:02;96421.03;;;19.66;100.00
36598;BME280;22607;49.550;11.940;2023-07-29T10:19:29;96428.47;;;19.64;100.00
36598;BME280;22607;49.550;11.940;2023-07-29T10:22:00;96437.81;;;19.50;100.00
36598;BME280;22607;49.550;11.940;2023-07-29T10:24:32;96436.22;;;19.66;100.00
36598;BME280;22607;49.550;11.940;2023-07-29T10:27:01;96423.13;;;19.47;100.00
36598;BME280;22607;49.550;11.940;2023-07-29T10:29:31;96426.81;;;19.46;100.00
36598;BME280;22607;49.550;11.940;2023-07-29T10:32:01;96436.53;;;19.52;100.00
36598;BME280;22607;49.550;11.940;2023-07-29T10:34:30;96421.84;;;19.50;100.00
36598;BME280;22607;49.550;11.940;2023-07-29T10:36:58;96421.56;;;19.51;100.00
36598;BME280;22607;49.550;11.940;2023-07-29T10:39:25;96408.47;;;19.79;100.00
36598;BME280;22607;49.550;11.940;2023-07-29T10:42:02;96414.41;;;19.86;100.00
36598;BME280;22607;49.550;11.940;2023-07-29T10:47:18;96424.13;;;19.92;100.00
36598;BME280;22607;49.550;11.940;2023-07-29T10:49:46;96420.34;;;20.05;100.00
36598;BME280;22607;49.550;11.940;2023-07-29T10:52:14;96409.66;;;20.23;100.00
36598;BME280;22607;49.550;11.940;2023-07-29T10:54:46;96409.28;;;20.14;100.00
36598;BME280;22607;49.550;11.940;2023-07-29T10:57:14;96403.94;;;20.53;100.00
36598;BME280;22607;49.550;11.940;2023-07-29T10:59:54;96405.47;;;20.49;100.00
36598;BME280;22607;49.550;11.940;2023-07-29T11:02:29;96404.69;;;20.49;100.00
36598;BME280;22607;49.550;11.940;2023-07-29T11:04:56;96410.41;;;20.80;100.00
36598;BME280;22607;49.550;11.940;2023-07-29T11:07:23;96401.84;;;21.22;100.00
36598;BME280;22607;49.550;11.940;2023-07-29T11:09:58;96401.38;;;21.58;100.00
36598;BME280;22607;49.550;11.940;2023-07-29T11:12:50;96394.84;;;21.76;100.00
36598;BME280;22607;49.550;11.940;2023-07-29T11:15:28;96393.56;;;21.84;100.00
36598;BME280;22607;49.550;11.940;2023-07-29T11:17:59;96372.22;;;21.89;100.00
36598;BME280;22607;49.550;11.940;2023-07-29T11:20:33;96370.19;;;22.02;100.00
36598;BME280;22607;49.550;11.940;2023-07-29T11:23:01;96373.72;;;22.13;100.00
36598;BME280;22607;49.550;11.940;2023-07-29T11:25:29;96363.56;;;22.68;100.00
36598;BME280;22607;49.550;11.940;2023-07-29T11:27:58;96361.03;;;23.20;100.00
36598;BME280;22607;49.550;11.940;2023-07-29T11:30:26;96356.50;;;23.31;100.00
36598;BME280;22607;49.550;11.940;2023-07-29T11:32:54;96358.59;;;23.08;100.00
36598;BME280;22607;49.550;11.940;2023-07-29T11:35:22;96369.56;;;23.02;100.00
36598;BME280;22607;49.550;11.940;2023-07-29T11:37:51;96353.81;;;23.26;100.00
36598;BME280;22607;49.550;11.940;2023-07-29T11:40:20;96343.09;;;23.11;100.00
36598;BME280;22607;49.550;11.940;2023-07-29T11:42:48;96358.09;;;23.12;100.00
36598;BME280;22607;49.550;11.940;2023-07-29T11:45:17;96348.19;;;23.23;100.00
36598;BME280;22607;49.550;11.940;2023-07-29T11:47:44;96344.69;;;23.17;100.00
36598;BME280;22607;49.550;11.940;2023-07-29T11:50:12;96352.19;;;23.10;100.00
36598;BME280;22607;49.550;11.940;2023-07-29T11:52:44;96365.78;;;22.92;100.00
36598;BME280;22607;49.550;11.940;2023-07-29T11:55:13;96355.28;;;22.70;100.00
36598;BME280;22607;49.550;11.940;2023-07-29T11:57:42;96361.59;;;22.48;100.00
36598;BME280;22607;49.550;11.940;2023-07-29T12:00:10;96362.69;;;22.52;100.00
36598;BME280;22607;49.550;11.940;2023-07-29T12:02:41;96348.50;;;22.52;100.00
36598;BME280;22607;49.550;11.940;2023-07-29T12:05:12;96341.66;;;22.77;100.00
36598;BME280;22607;49.550;11.940;2023-07-29T12:07:40;96353.72;;;22.85;100.00
36598;BME280;22607;49.550;11.940;2023-07-29T12:10:08;96343.03;;;22.85;100.00
36598;BME280;22607;49.550;11.940;2023-07-29T12:12:49;96331.53;;;22.84;100.00
36598;BME280;22607;49.550;11.940;2023-07-29T12:15:26;96345.28;;;23.34;100.00
36598;BME280;22607;49.550;11.940;2023-07-29T12:17:54;96339.94;;;23.76;100.00
36598;BME280;22607;49.550;11.940;2023-07-29T12:20:23;96340.44;;;23.83;100.00
36598;BME280;22607;49.550;11.940;2023-07-29T12:22:57;96345.00;;;23.83;100.00
36598;BME280;22607;49.550;11.940;2023-07-29T12:25:25;96338.88;;;23.62;100.00
36598;BME280;22607;49.550;11.940;2023-07-29T12:27:52;96331.09;;;23.60;100.00
36598;BME280;22607;49.550;11.940;2023-07-29T12:30:23;96333.50;;;23.77;100.00
36598;BME280;22607;49.550;11.940;2023-07-29T12:32:51;96318.50;;;23.66;100.00
36598;BME280;22607;49.550;11.940;2023-07-29T12:35:18;96323.31;;;23.84;100.00
36598;BME280;22607;49.550;11.940;2023-07-29T12:37:44;96308.28;;;23.73;100.00
36598;BME280;22607;49.550;11.940;2023-07-29T12:40:24;96312.03;;;23.82;100.00
36598;BME280;22607;49.550;11.940;2023-07-29T12:42:51;96307.47;;;23.93;100.00
36598;BME280;22607;49.550;11.940;2023-07-29T12:45:18;96299.16;;;23.95;100.00
36598;BME280;22607;49.550;11.940;2023-07-29T12:47:45;96307.78;;;23.60;100.00
36598;BME280;22607;49.550;11.940;2023-07-29T12:50:12;96296.75;;;23.83;100.00
36598;BME280;22607;49.550;11.940;2023-07-29T12:52:40;96299.13;;;24.00;100.00
36598;BME280;22607;49.550;11.940;2023-07-29T12:55:07;96294.31;;;23.92;100.00